sensor_id;sensor_type;location;lat;lon;timestamp;P1;durP1;ratioP1;P2;durP2;ratioP2
2976;SDS011;1498;51.500;7.440;2023-03-01T00:01:22;18.10;;;10.00;;
2976;SDS011;1498;51.500;7.440;2023-03-01T00:03:50;11.17;;;8.67;;
2976;SDS011;1498;51.500;7.440;2023-03-01T00:06:15;15.47;;;9.07;;
2976;SDS011;1498;51.500;7.440;2023-03-01T00:08:41;11.17;;;8.30;;
2976;SDS011;1498;51.500;7.440;2023-03-01T00:11:08;14.63;;;10.07;;
2976;SDS011;1498;51.500;7.440;2023-03-01T00:13:37;13.57;;;8.13;;
2976;SDS011;1498;51.500;7.440;2023-03-01T00:16:03;11.53;;;9.20;;
2976;SDS011;1498;51.500;7.440;2023-03-01T00:18:30;14.80;;;10.10;;
2976;SDS011;1498;51.500;7.440;2023-03-01T00:20:56;11.90;;;8.90;;
2976;SDS011;1498;51.500;7.440;2023-03-01T00:23:22;19.83;;;9.33;;
2976;SDS011;1498;51.500;7.440;2023-03-01T00:25:48;11.70;;;8.87;;
2976;SDS011;1498;51.500;7.440;2023-03-01T00:28:14;14.63;;;8.90;;
2976;SDS011;1498;51.500;7.440;2023-03-01T00:30:40;9.77;;;8.80;;
2976;SDS011;1498;51.500;7.440;2023-03-01T00:33:06;12.70;;;9.90;;
2976;SDS011;1498;51.500;7.440;2023-03-01T00:35:32;10.43;;;8.13;;
2976;SDS011;1498;51.500;7.440;2023-03-01T00:37:58;12.20;;;8.60;;
2976;SDS011;1498;51.500;7.440;2023-03-01T00:40:24;12.30;;;8.60;;
2976;SDS011;1498;51.500;7.440;2023-03-01T00:42:50;14.10;;;8.40;;
2976;SDS011;1498;51.500;7.440;2023-03-01T00:45:16;11.40;;;9.43;;
2976;SDS011;1498;51.500;7.440;2023-03-01T00:47:42;10.40;;;8.80;;
2976;SDS011;1498;51.500;7.440;2023-03-01T00:50:08;10.87;;;8.73;;
2976;SDS011;1498;51.500;7.440;2023-03-01T00:52:34;9.67;;;8.33;;
2976;SDS011;1498;51.500;7.440;2023-03-01T00:55:00;10.90;;;9.07;;
2976;SDS011;1498;51.500;7.440;2023-03-01T00:57:25;13.30;;;9.30;;
2976;SDS011;1498;51.500;7.440;2023-03-01T00:59:51;12.37;;;8.97;;
2976;SDS011;1498;51.500;7.440;2023-03-01T01:02:17;11.73;;;9.43;;
2976;SDS011;1498;51.500;7.440;2023-03-01T01:04:44;9.40;;;8.33;;
2976;SDS011;1498;51.500;7.440;2023-03-01T01:07:10;10.00;;;8.50;;
2976;SDS011;1498;51.500;7.440;2023-03-01T01:09:35;10.57;;;9.40;;
2976;SDS011;1498;51.500;7.440;2023-03-01T01:12:01;15.20;;;9.77;;
2976;SDS011;1498;51.500;7.440;2023-03-01T01:14:27;16.83;;;9.23;;
2976;SDS011;1498;51.500;7.440;2023-03-01T01:16:53;12.07;;;8.70;;
2976;SDS011;1498;51.500;7.440;2023-03-01T01:19:19;13.00;;;10.50;;
2976;SDS011;1498;51.500;7.440;2023-03-01T01:21:44;12.80;;;8.87;;
2976;SDS011;1498;51.500;7.440;2023-03-01T01:24:11;10.70;;;9.40;;
2976;SDS011;1498;51.500;7.440;2023-03-01T01:26:37;10.67;;;8.93;;
2976;SDS011;1498;51.500;7.440;2023-03-01T01:29:03;14.93;;;9.27;;
2976;SDS011;1498;51.500;7.440;2023-03-01T01:31:30;12.00;;;9.03;;
2976;SDS011;1498;51.500;7.440;2023-03-01T01:33:56;13.23;;;8.90;;
2976;SDS011;1498;51.500;7.440;2023-03-01T01:36:23;19.20;;;9.97;;
2976;SDS011;1498;51.500;7.440;2023-03-01T01:38:49;12.50;;;9.10;;
2976;SDS011;1498;51.500;7.440;2023-03-01T01:41:14;10.53;;;9.30;;
2976;SDS011;1498;51.500;7.440;2023-03-01T01:43:44;11.00;;;9.27;;
2976;SDS011;1498;51.500;7.440;2023-03-01T01:46:30;11.87;;;9.50;;
2976;SDS011;1498;51.500;7.440;2023-03-01T01:48:58;11.60;;;10.10;;
2976;SDS011;1498;51.500;7.440;2023-03-01T01:51:28;11.53;;;10.20;;
2976;SDS011;1498;51.500;7.440;2023-03-01T01:54:11;9.63;;;8.13;;
2976;SDS011;1498;51.500;7.440;2023-03-01T01:56:43;14.00;;;9.47;;
2976;SDS011;1498;51.500;7.440;2023-03-01T01:59:13;12.33;;;8.53;;
2976;SDS011;1498;51.500;7.440;2023-03-01T02:01:39;16.13;;;9.87;;
2976;SDS011;1498;51.500;7.440;2023-03-01T02:04:04;13.03;;;9.17;;
2976;SDS011;1498;51.500;7.440;2023-03-01T02:06:33;15.83;;;9.10;;
2976;SDS011;1498;51.500;7.440;2023-03-01T02:09:04;12.93;;;9.43;;
2976;SDS011;1498;51.500;7.440;2023-03-01T02:11:35;12.47;;;9.27;;
2976;SDS011;1498;51.500;7.440;2023-03-01T02:14:02;12.73;;;8.13;;
2976;SDS011;1498;51.500;7.440;2023-03-01T02:16:29;13.43;;;9.40;;
2976;SDS011;1498;51.500;7.440;2023-03-01T02:18:56;9.73;;;8.70;;
2976;SDS011;1498;51.500;7.440;2023-03-01T02:23:54;13.23;;;9.70;;
2976;SDS011;1498;51.500;7.440;2023-03-01T02:26:23;11.53;;;8.73;;
2976;SDS011;1498;51.500;7.440;2023-03-01T02:29:04;11.80;;;8.87;;
2976;SDS011;1498;51.500;7.440;2023-03-01T02:31:30;13.20;;;9.87;;
2976;SDS011;1498;51.500;7.440;2023-03-01T02:34:09;11.17;;;8.77;;
2976;SDS011;1498;51.500;7.440;2023-03-01T02:36:49;10.93;;;8.60;;
2976;SDS011;1498;51.500;7.440;2023-03-01T02:39:22;10.03;;;7.60;;
2976;SDS011;1498;51.500;7.440;2023-03-01T02:41:53;16.27;;;10.00;;
2976;SDS011;1498;51.500;7.440;2023-03-01T02:44:21;12.77;;;8.47;;
2976;SDS011;1498;51.500;7.440;2023-03-01T02:46:48;10.17;;;8.40;;
2976;SDS011;1498;51.500;7.440;2023-03-01T02:57:20;10.77;;;9.00;;
2976;SDS011;1498;51.500;7.440;2023-03-01T02:59:48;11.00;;;8.87;;
2976;SDS011;1498;51.500;7.440;2023-03-01T03:02:19;13.13;;;10.20;;
2976;SDS011;1498;51.500;7.440;2023-03-01T03:05:00;12.50;;;10.00;;
2976;SDS011;1498;51.500;7.440;2023-03-01T03:07:37;14.23;;;10.43;;
2976;SDS011;1498;51.500;7.440;2023-03-01T03:10:05;10.90;;;9.00;;
2976;SDS011;1498;51.500;7.440;2023-03-01T03:12:34;14.57;;;9.93;;
2976;SDS011;1498;51.500;7.440;2023-03-01T03:14:59;11.83;;;10.40;;
2976;SDS011;1498;51.500;7.440;2023-03-01T03:17:25;13.07;;;8.97;;
2976;SDS011;1498;51.500;7.440;2023-03-01T03:19:50;14.90;;;9.90;;
2976;SDS011;1498;51.500;7.440;2023-03-01T03:22:16;12.20;;;10.00;;
2976;SDS011;1498;51.500;7.440;2023-03-01T03:24:42;9.80;;;8.80;;
2976;SDS011;1498;51.500;7.440;2023-03-01T03:27:07;10.83;;;9.50;;
2976;SDS011;1498;51.500;7.440;2023-03-01T03:29:33;12.30;;;10.73;;
2976;SDS011;1498;51.500;7.440;2023-03-01T03:31:59;12.50;;;10.00;;
2976;SDS011;1498;51.500;7.440;2023-03-01T03:34:24;14.07;;;10.33;;
2976;SDS011;1498;51.500;7.440;2023-03-01T03:36:56;11.53;;;8.97;;
2976;SDS011;1498;51.500;7.440;2023-03-01T05:32:42;11.30;;;10.00;;
2976;SDS011;1498;51.500;7.440;2023-03-01T05:35:11;14.33;;;10.40;;
2976;SDS011;1498;51.500;7.440;2023-03-01T05:37:38;16.17;;;10.17;;
2976;SDS011;1498;51.500;7.440;2023-03-01T05:40:08;11.67;;;9.80;;
2976;SDS011;1498;51.500;7.440;2023-03-01T05:42:40;10.80;;;9.10;;
2976;SDS011;1498;51.500;7.440;2023-03-01T05:45:10;13.80;;;11.33;;
2976;SDS011;1498;51.500;7.440;2023-03-01T05:47:37;15.10;;;10.90;;
2976;SDS011;1498;51.500;7.440;2023-03-01T05:50:04;16.00;;;11.57;;
2976;SDS011;1498;51.500;7.440;2023-03-01T05:52:32;14.97;;;12.10;;
2976;SDS011;1498;51.500;7.440;2023-03-01T05:54:57;12.97;;;10.27;;
2976;SDS011;1498;51.500;7.440;2023-03-01T05:57:23;12.57;;;10.27;;
2976;SDS011;1498;51.500;7.440;2023-03-01T05:59:48;15.37;;;10.57;;
2976;SDS011;1498;51.500;7.440;2023-03-01T06:02:14;13.63;;;9.63;;
2976;SDS011;1498;51.500;7.440;2023-03-01T06:04:39;15.20;;;12.13;;
2976;SDS011;1498;51.500;7.440;2023-03-01T06:07:05;25.70;;;11.57;;
2976;SDS011;1498;51.500;7.440;2023-03-01T06:09:30;14.57;;;10.53;;
2976;SDS011;1498;51.500;7.440;2023-03-01T06:11:56;14.43;;;11.07;;
2976;SDS011;1498;51.500;7.440;2023-03-01T06:14:21;13.73;;;10.50;;
2976;SDS011;1498;51.500;7.440;2023-03-01T06:16:47;14.93;;;10.33;;
2976;SDS011;1498;51.500;7.440;2023-03-01T06:19:12;16.80;;;11.70;;
2976;SDS011;1498;51.500;7.440;2023-03-01T06:21:38;15.33;;;10.70;;
2976;SDS011;1498;51.500;7.440;2023-03-01T06:24:04;15.93;;;11.80;;
2976;SDS011;1498;51.500;7.440;2023-03-01T06:26:32;13.27;;;10.60;;
2976;SDS011;1498;51.500;7.440;2023-03-01T06:28:57;14.47;;;11.00;;
2976;SDS011;1498;51.500;7.440;2023-03-01T06:31:23;17.60;;;10.20;;
2976;SDS011;1498;51.500;7.440;2023-03-01T06:33:48;15.90;;;11.67;;
2976;SDS011;1498;51.500;7.440;2023-03-01T06:36:14;17.80;;;11.33;;
2976;SDS011;1498;51.500;7.440;2023-03-01T06:38:40;15.20;;;10.90;;
2976;SDS011;1498;51.500;7.440;2023-03-01T06:41:06;18.10;;;12.30;;
2976;SDS011;1498;51.500;7.440;2023-03-01T06:43:32;15.73;;;11.80;;
2976;SDS011;1498;51.500;7.440;2023-03-01T06:45:57;16.40;;;11.73;;
2976;SDS011;1498;51.500;7.440;2023-03-01T06:48:23;15.83;;;11.30;;
2976;SDS011;1498;51.500;7.440;2023-03-01T06:50:48;17.33;;;12.17;;
2976;SDS011;1498;51.500;7.440;2023-03-01T06:53:14;20.43;;;12.50;;
2976;SDS011;1498;51.500;7.440;2023-03-01T06:55:39;16.30;;;11.73;;
2976;SDS011;1498;51.500;7.440;2023-03-01T06:58:05;16.60;;;12.00;;
2976;SDS011;1498;51.500;7.440;2023-03-01T07:00:31;15.07;;;11.70;;
2976;SDS011;1498;51.500;7.440;2023-03-01T07:03:00;15.23;;;11.10;;
2976;SDS011;1498;51.500;7.440;2023-03-01T07:05:27;18.20;;;12.73;;
2976;SDS011;1498;51.500;7.440;2023-03-01T07:07:53;36.73;;;13.63;;
2976;SDS011;1498;51.500;7.440;2023-03-01T07:10:20;20.83;;;13.30;;
2976;SDS011;1498;51.500;7.440;2023-03-01T07:12:45;22.33;;;14.30;;
2976;SDS011;1498;51.500;7.440;2023-03-01T07:15:11;21.57;;;14.27;;
2976;SDS011;1498;51.500;7.440;2023-03-01T07:17:37;24.77;;;13.60;;
2976;SDS011;1498;51.500;7.440;2023-03-01T07:20:02;21.50;;;14.40;;
2976;SDS011;1498;51.500;7.440;2023-03-01T07:22:28;20.07;;;14.73;;
2976;SDS011;1498;51.500;7.440;2023-03-01T07:24:54;26.57;;;13.80;;
2976;SDS011;1498;51.500;7.440;2023-03-01T07:27:19;23.10;;;14.40;;
2976;SDS011;1498;51.500;7.440;2023-03-01T07:29:45;23.10;;;15.40;;
2976;SDS011;1498;51.500;7.440;2023-03-01T07:32:10;14.87;;;12.10;;
2976;SDS011;1498;51.500;7.440;2023-03-01T07:34:36;21.40;;;14.20;;
2976;SDS011;1498;51.500;7.440;2023-03-01T07:37:02;21.63;;;13.50;;
2976;SDS011;1498;51.500;7.440;2023-03-01T07:39:27;24.27;;;13.57;;
2976;SDS011;1498;51.500;7.440;2023-03-01T07:41:53;13.93;;;12.47;;
2976;SDS011;1498;51.500;7.440;2023-03-01T07:44:18;19.53;;;13.90;;
2976;SDS011;1498;51.500;7.440;2023-03-01T07:46:44;15.47;;;11.67;;
2976;SDS011;1498;51.500;7.440;2023-03-01T07:49:10;30.07;;;13.03;;
2976;SDS011;1498;51.500;7.440;2023-03-01T07:51:36;17.07;;;12.60;;
2976;SDS011;1498;51.500;7.440;2023-03-01T07:54:03;30.77;;;12.17;;
2976;SDS011;1498;51.500;7.440;2023-03-01T07:56:28;21.93;;;13.00;;
2976;SDS011;1498;51.500;7.440;2023-03-01T07:58:54;18.37;;;11.87;;
2976;SDS011;1498;51.500;7.440;2023-03-01T08:01:21;19.03;;;12.47;;
2976;SDS011;1498;51.500;7.440;2023-03-01T08:03:47;17.70;;;12.00;;
2976;SDS011;1498;51.500;7.440;2023-03-01T08:06:15;15.10;;;12.77;;
2976;SDS011;1498;51.500;7.440;2023-03-01T08:08:41;19.13;;;13.37;;
2976;SDS011;1498;51.500;7.440;2023-03-01T08:11:09;20.93;;;13.03;;
2976;SDS011;1498;51.500;7.440;2023-03-01T08:13:36;20.80;;;13.20;;
2976;SDS011;1498;51.500;7.440;2023-03-01T08:16:05;17.50;;;12.57;;
2976;SDS011;1498;51.500;7.440;2023-03-01T08:18:38;16.97;;;12.27;;
2976;SDS011;1498;51.500;7.440;2023-03-01T08:21:05;15.10;;;12.00;;
2976;SDS011;1498;51.500;7.440;2023-03-01T08:23:35;15.40;;;11.90;;
2976;SDS011;1498;51.500;7.440;2023-03-01T08:26:10;17.70;;;11.30;;
2976;SDS011;1498;51.500;7.440;2023-03-01T08:28:38;20.43;;;11.87;;
2976;SDS011;1498;51.500;7.440;2023-03-01T08:34:02;16.47;;;10.30;;
2976;SDS011;1498;51.500;7.440;2023-03-01T08:36:34;15.47;;;11.20;;
2976;SDS011;1498;51.500;7.440;2023-03-01T08:39:02;17.53;;;11.87;;
2976;SDS011;1498;51.500;7.440;2023-03-01T08:41:28;13.80;;;9.40;;
2976;SDS011;1498;51.500;7.440;2023-03-01T08:43:54;14.37;;;10.50;;
2976;SDS011;1498;51.500;7.440;2023-03-01T08:46:24;19.10;;;10.70;;
2976;SDS011;1498;51.500;7.440;2023-03-01T08:48:53;14.27;;;10.13;;
2976;SDS011;1498;51.500;7.440;2023-03-01T08:51:19;12.73;;;11.40;;
2976;SDS011;1498;51.500;7.440;2023-03-01T08:53:45;14.43;;;9.90;;
2976;SDS011;1498;51.500;7.440;2023-03-01T08:56:11;16.43;;;10.03;;
2976;SDS011;1498;51.500;7.440;2023-03-01T08:58:37;16.80;;;10.30;;
2976;SDS011;1498;51.500;7.440;2023-03-01T09:01:08;11.83;;;9.33;;
2976;SDS011;1498;51.500;7.440;2023-03-01T09:03:34;14.20;;;10.00;;
2976;SDS011;1498;51.500;7.440;2023-03-01T09:06:00;16.03;;;10.70;;
2976;SDS011;1498;51.500;7.440;2023-03-01T09:08:27;14.60;;;9.97;;
2976;SDS011;1498;51.500;7.440;2023-03-01T09:10:53;11.87;;;8.90;;
2976;SDS011;1498;51.500;7.440;2023-03-01T09:13:19;13.67;;;9.33;;
2976;SDS011;1498;51.500;7.440;2023-03-01T09:15:44;12.10;;;7.93;;
2976;SDS011;1498;51.500;7.440;2023-03-01T09:18:10;12.07;;;9.27;;
2976;SDS011;1498;51.500;7.440;2023-03-01T09:20:35;11.07;;;7.60;;
2976;SDS011;1498;51.500;7.440;2023-03-01T09:23:01;12.13;;;8.87;;
2976;SDS011;1498;51.500;7.440;2023-03-01T09:25:27;11.37;;;9.03;;
2976;SDS011;1498;51.500;7.440;2023-03-01T09:27:53;13.33;;;9.50;;
2976;SDS011;1498;51.500;7.440;2023-03-01T09:30:20;9.23;;;8.13;;
2976;SDS011;1498;51.500;7.440;2023-03-01T09:32:47;11.30;;;8.60;;
2976;SDS011;1498;51.500;7.440;2023-03-01T09:35:13;10.80;;;8.70;;
2976;SDS011;1498;51.500;7.440;2023-03-01T09:37:39;14.43;;;10.47;;
2976;SDS011;1498;51.500;7.440;2023-03-01T09:40:08;11.07;;;7.67;;
2976;SDS011;1498;51.500;7.440;2023-03-01T09:42:45;10.43;;;8.27;;
2976;SDS011;1498;51.500;7.440;2023-03-01T09:45:19;11.90;;;8.23;;
2976;SDS011;1498;51.500;7.440;2023-03-01T09:47:52;9.87;;;8.23;;
2976;SDS011;1498;51.500;7.440;2023-03-01T09:50:19;17.13;;;8.63;;
2976;SDS011;1498;51.500;7.440;2023-03-01T09:52:46;9.73;;;7.90;;
2976;SDS011;1498;51.500;7.440;2023-03-01T09:55:15;10.33;;;7.37;;
2976;SDS011;1498;51.500;7.440;2023-03-01T10:03:24;10.53;;;8.50;;
2976;SDS011;1498;51.500;7.440;2023-03-01T10:08:47;9.17;;;6.53;;
2976;SDS011;1498;51.500;7.440;2023-03-01T10:11:37;9.53;;;7.87;;
2976;SDS011;1498;51.500;7.440;2023-03-01T10:14:09;11.37;;;7.43;;
2976;SDS011;1498;51.500;7.440;2023-03-01T10:16:55;9.73;;;7.67;;
2976;SDS011;1498;51.500;7.440;2023-03-01T10:19:36;12.87;;;6.60;;
2976;SDS011;1498;51.500;7.440;2023-03-01T10:22:16;8.37;;;6.73;;
2976;SDS011;1498;51.500;7.440;2023-03-01T10:24:54;10.27;;;8.03;;
2976;SDS011;1498;51.500;7.440;2023-03-01T10:27:24;11.37;;;7.50;;
2976;SDS011;1498;51.500;7.440;2023-03-01T10:32:45;8.67;;;7.13;;
2976;SDS011;1498;51.500;7.440;2023-03-01T10:35:18;9.50;;;7.70;;
2976;SDS011;1498;51.500;7.440;2023-03-01T10:37:56;11.10;;;7.83;;
2976;SDS011;1498;51.500;7.440;2023-03-01T10:40:30;11.50;;;8.30;;
2976;SDS011;1498;51.500;7.440;2023-03-01T10:42:57;13.47;;;7.47;;
2976;SDS011;1498;51.500;7.440;2023-03-01T10:45:37;12.90;;;8.90;;
2976;SDS011;1498;51.500;7.440;2023-03-01T10:50:40;9.30;;;8.30;;
2976;SDS011;1498;51.500;7.440;2023-03-01T10:53:28;12.63;;;7.90;;
2976;SDS011;1498;51.500;7.440;2023-03-01T10:58:24;11.77;;;8.77;;
2976;SDS011;1498;51.500;7.440;2023-03-01T11:00:51;16.33;;;8.03;;
2976;SDS011;1498;51.500;7.440;2023-03-01T11:03:21;13.80;;;8.93;;
2976;SDS011;1498;51.500;7.440;2023-03-01T11:08:35;11.93;;;8.30;;
2976;SDS011;1498;51.500;7.440;2023-03-01T11:16:15;11.03;;;7.33;;
2976;SDS011;1498;51.500;7.440;2023-03-01T11:19:07;9.87;;;7.83;;
2976;SDS011;1498;51.500;7.440;2023-03-01T11:24:12;13.37;;;8.93;;
2976;SDS011;1498;51.500;7.440;2023-03-01T11:26:42;12.07;;;8.10;;
2976;SDS011;1498;51.500;7.440;2023-03-01T11:29:24;9.67;;;7.50;;
2976;SDS011;1498;51.500;7.440;2023-03-01T11:32:05;11.50;;;8.77;;
2976;SDS011;1498;51.500;7.440;2023-03-01T11:34:38;12.57;;;8.23;;
2976;SDS011;1498;51.500;7.440;2023-03-01T11:37:12;11.43;;;7.57;;
2976;SDS011;1498;51.500;7.440;2023-03-01T11:39:54;12.53;;;8.33;;
2976;SDS011;1498;51.500;7.440;2023-03-01T11:42:28;10.20;;;8.23;;
2976;SDS011;1498;51.500;7.440;2023-03-01T11:45:08;11.77;;;8.20;;
2976;SDS011;1498;51.500;7.440;2023-03-01T11:47:45;9.37;;;8.03;;
2976;SDS011;1498;51.500;7.440;2023-03-01T11:50:29;10.93;;;8.07;;
2976;SDS011;1498;51.500;7.440;2023-03-01T11:53:24;9.80;;;7.67;;
2976;SDS011;1498;51.500;7.440;2023-03-01T11:55:54;9.27;;;8.10;;
2976;SDS011;1498;51.500;7.440;2023-03-01T12:07:00;8.70;;;7.27;;
2976;SDS011;1498;51.500;7.440;2023-03-01T12:12:46;13.23;;;8.63;;
2976;SDS011;1498;51.500;7.440;2023-03-01T12:18:47;12.23;;;9.60;;
2976;SDS011;1498;51.500;7.440;2023-03-01T12:24:02;10.70;;;7.93;;
2976;SDS011;1498;51.500;7.440;2023-03-01T12:26:35;11.65;;;9.43;;
2976;SDS011;1498;51.500;7.440;2023-03-01T12:32:15;11.57;;;7.70;;
2976;SDS011;1498;51.500;7.440;2023-03-01T12:49:16;11.30;;;8.50;;
2976;SDS011;1498;51.500;7.440;2023-03-01T12:51:51;9.90;;;7.10;;
2976;SDS011;1498;51.500;7.440;2023-03-01T12:54:26;10.70;;;8.03;;
2976;SDS011;1498;51.500;7.440;2023-03-01T12:56:55;10.87;;;7.73;;
2976;SDS011;1498;51.500;7.440;2023-03-01T12:59:28;11.17;;;7.90;;
2976;SDS011;1498;51.500;7.440;2023-03-01T13:05:05;9.50;;;6.70;;
2976;SDS011;1498;51.500;7.440;2023-03-01T13:15:39;10.97;;;8.07;;
2976;SDS011;1498;51.500;7.440;2023-03-01T13:25:59;10.73;;;8.13;;
2976;SDS011;1498;51.500;7.440;2023-03-01T13:30:59;10.40;;;8.13;;
2976;SDS011;1498;51.500;7.440;2023-03-01T13:35:51;13.47;;;8.70;;
2976;SDS011;1498;51.500;7.440;2023-03-01T13:44:12;11.20;;;7.57;;
2976;SDS011;1498;51.500;7.440;2023-03-01T13:46:47;9.40;;;7.30;;
2976;SDS011;1498;51.500;7.440;2023-03-01T13:49:18;10.57;;;7.07;;
2976;SDS011;1498;51.500;7.440;2023-03-01T13:51:46;8.27;;;6.30;;
2976;SDS011;1498;51.500;7.440;2023-03-01T13:54:16;10.40;;;7.90;;
2976;SDS011;1498;51.500;7.440;2023-03-01T13:56:51;9.43;;;7.40;;
2976;SDS011;1498;51.500;7.440;2023-03-01T13:59:18;13.03;;;7.43;;
2976;SDS011;1498;51.500;7.440;2023-03-01T14:01:51;13.77;;;7.70;;
2976;SDS011;1498;51.500;7.440;2023-03-01T14:04:25;10.17;;;7.70;;
2976;SDS011;1498;51.500;7.440;2023-03-01T14:06:52;17.17;;;7.30;;
2976;SDS011;1498;51.500;7.440;2023-03-01T14:09:33;10.17;;;6.40;;
2976;SDS011;1498;51.500;7.440;2023-03-01T14:14:37;12.97;;;7.30;;
2976;SDS011;1498;51.500;7.440;2023-03-01T14:19:32;9.13;;;6.97;;
2976;SDS011;1498;51.500;7.440;2023-03-01T14:24:38;11.80;;;7.43;;
2976;SDS011;1498;51.500;7.440;2023-03-01T14:27:10;8.50;;;6.63;;
2976;SDS011;1498;51.500;7.440;2023-03-01T14:29:38;8.73;;;6.27;;
2976;SDS011;1498;51.500;7.440;2023-03-01T14:32:08;11.67;;;6.23;;
2976;SDS011;1498;51.500;7.440;2023-03-01T14:34:50;7.90;;;6.40;;
2976;SDS011;1498;51.500;7.440;2023-03-01T14:37:24;9.73;;;6.90;;
2976;SDS011;1498;51.500;7.440;2023-03-01T14:39:54;9.87;;;6.37;;
2976;SDS011;1498;51.500;7.440;2023-03-01T14:42:21;6.93;;;6.23;;
2976;SDS011;1498;51.500;7.440;2023-03-01T14:44:49;7.33;;;6.50;;
2976;SDS011;1498;51.500;7.440;2023-03-01T14:47:35;10.53;;;6.60;;
2976;SDS011;1498;51.500;7.440;2023-03-01T14:52:47;8.40;;;5.43;;
2976;SDS011;1498;51.500;7.440;2023-03-01T14:55:16;11.67;;;6.73;;
2976;SDS011;1498;51.500;7.440;2023-03-01T14:57:46;7.47;;;6.73;;
2976;SDS011;1498;51.500;7.440;2023-03-01T15:00:24;7.63;;;5.47;;
2976;SDS011;1498;51.500;7.440;2023-03-01T15:02:52;8.13;;;7.10;;
2976;SDS011;1498;51.500;7.440;2023-03-01T15:07:58;6.67;;;5.70;;
2976;SDS011;1498;51.500;7.440;2023-03-01T15:10:30;10.00;;;6.43;;
2976;SDS011;1498;51.500;7.440;2023-03-01T15:13:14;10.10;;;6.87;;
2976;SDS011;1498;51.500;7.440;2023-03-01T15:15:51;9.50;;;6.40;;
2976;SDS011;1498;51.500;7.440;2023-03-01T15:18:26;10.70;;;6.97;;
2976;SDS011;1498;51.500;7.440;2023-03-01T15:20:53;9.17;;;6.03;;
2976;SDS011;1498;51.500;7.440;2023-03-01T15:23:24;8.67;;;6.53;;
2976;SDS011;1498;51.500;7.440;2023-03-01T15:25:52;9.10;;;6.77;;
2976;SDS011;1498;51.500;7.440;2023-03-01T15:28:26;12.60;;;6.70;;
2976;SDS011;1498;51.500;7.440;2023-03-01T15:31:00;9.03;;;6.73;;
2976;SDS011;1498;51.500;7.440;2023-03-01T15:33:43;8.27;;;6.10;;
2976;SDS011;1498;51.500;7.440;2023-03-01T15:38:59;9.83;;;7.00;;
2976;SDS011;1498;51.500;7.440;2023-03-01T15:41:29;9.20;;;5.60;;
2976;SDS011;1498;51.500;7.440;2023-03-01T15:43:56;12.07;;;5.70;;
2976;SDS011;1498;51.500;7.440;2023-03-01T15:46:28;9.00;;;6.30;;
2976;SDS011;1498;51.500;7.440;2023-03-01T15:49:03;9.07;;;6.70;;
2976;SDS011;1498;51.500;7.440;2023-03-01T15:51:42;10.33;;;6.70;;
2976;SDS011;1498;51.500;7.440;2023-03-01T15:54:14;12.53;;;6.43;;
2976;SDS011;1498;51.500;7.440;2023-03-01T15:56:43;9.87;;;6.50;;
2976;SDS011;1498;51.500;7.440;2023-03-01T15:59:09;9.23;;;6.57;;
2976;SDS011;1498;51.500;7.440;2023-03-01T16:01:42;9.40;;;6.53;;
2976;SDS011;1498;51.500;7.440;2023-03-01T16:04:12;9.10;;;6.30;;
2976;SDS011;1498;51.500;7.440;2023-03-01T16:06:46;10.30;;;6.27;;
2976;SDS011;1498;51.500;7.440;2023-03-01T16:09:20;8.40;;;5.83;;
2976;SDS011;1498;51.500;7.440;2023-03-01T16:11:49;6.47;;;5.43;;
2976;SDS011;1498;51.500;7.440;2023-03-01T16:14:16;8.07;;;6.00;;
2976;SDS011;1498;51.500;7.440;2023-03-01T16:16:42;8.33;;;5.80;;
2976;SDS011;1498;51.500;7.440;2023-03-01T16:19:08;9.87;;;5.63;;
2976;SDS011;1498;51.500;7.440;2023-03-01T16:21:34;12.20;;;6.90;;
2976;SDS011;1498;51.500;7.440;2023-03-01T16:24:00;9.00;;;5.93;;
2976;SDS011;1498;51.500;7.440;2023-03-01T16:26:26;9.53;;;6.63;;
2976;SDS011;1498;51.500;7.440;2023-03-01T16:28:54;15.13;;;7.17;;
2976;SDS011;1498;51.500;7.440;2023-03-01T16:31:21;14.70;;;6.40;;
2976;SDS011;1498;51.500;7.440;2023-03-01T16:33:47;8.83;;;5.70;;
2976;SDS011;1498;51.500;7.440;2023-03-01T16:36:14;10.37;;;5.93;;
2976;SDS011;1498;51.500;7.440;2023-03-01T16:38:41;10.10;;;6.13;;
2976;SDS011;1498;51.500;7.440;2023-03-01T16:41:11;10.70;;;8.00;;
2976;SDS011;1498;51.500;7.440;2023-03-01T16:43:38;12.80;;;5.80;;
2976;SDS011;1498;51.500;7.440;2023-03-01T16:46:10;7.80;;;5.90;;
2976;SDS011;1498;51.500;7.440;2023-03-01T16:48:40;15.33;;;6.90;;
2976;SDS011;1498;51.500;7.440;2023-03-01T16:51:06;8.47;;;6.10;;
2976;SDS011;1498;51.500;7.440;2023-03-01T16:53:32;9.70;;;6.10;;
2976;SDS011;1498;51.500;7.440;2023-03-01T16:56:01;13.93;;;5.27;;
2976;SDS011;1498;51.500;7.440;2023-03-01T16:58:28;8.07;;;6.23;;
2976;SDS011;1498;51.500;7.440;2023-03-01T17:00:54;8.50;;;6.30;;
2976;SDS011;1498;51.500;7.440;2023-03-01T17:03:21;7.88;;;7.05;;
2976;SDS011;1498;51.500;7.440;2023-03-01T17:05:48;13.10;;;5.80;;
2976;SDS011;1498;51.500;7.440;2023-03-01T17:08:14;7.70;;;5.33;;
2976;SDS011;1498;51.500;7.440;2023-03-01T17:10:41;7.40;;;5.63;;
2976;SDS011;1498;51.500;7.440;2023-03-01T17:13:07;11.90;;;6.50;;
2976;SDS011;1498;51.500;7.440;2023-03-01T17:15:34;6.50;;;5.50;;
2976;SDS011;1498;51.500;7.440;2023-03-01T17:18:00;11.77;;;6.13;;
2976;SDS011;1498;51.500;7.440;2023-03-01T17:20:26;10.23;;;6.60;;
2976;SDS011;1498;51.500;7.440;2023-03-01T17:22:51;6.93;;;5.60;;
2976;SDS011;1498;51.500;7.440;2023-03-01T17:25:17;12.27;;;5.73;;
2976;SDS011;1498;51.500;7.440;2023-03-01T17:27:43;9.63;;;6.50;;
2976;SDS011;1498;51.500;7.440;2023-03-01T17:30:09;6.90;;;5.33;;
2976;SDS011;1498;51.500;7.440;2023-03-01T17:32:36;8.97;;;6.13;;
2976;SDS011;1498;51.500;7.440;2023-03-01T17:35:02;6.43;;;5.10;;
2976;SDS011;1498;51.500;7.440;2023-03-01T17:37:28;9.30;;;5.30;;
2976;SDS011;1498;51.500;7.440;2023-03-01T17:39:53;10.30;;;5.83;;
2976;SDS011;1498;51.500;7.440;2023-03-01T17:42:19;8.20;;;5.90;;
2976;SDS011;1498;51.500;7.440;2023-03-01T17:44:44;10.07;;;6.00;;
2976;SDS011;1498;51.500;7.440;2023-03-01T17:47:10;10.37;;;5.90;;
2976;SDS011;1498;51.500;7.440;2023-03-01T17:49:35;9.97;;;5.97;;
2976;SDS011;1498;51.500;7.440;2023-03-01T17:52:01;7.03;;;5.50;;
2976;SDS011;1498;51.500;7.440;2023-03-01T17:54:27;10.10;;;5.80;;
2976;SDS011;1498;51.500;7.440;2023-03-01T17:56:52;6.57;;;5.50;;
2976;SDS011;1498;51.500;7.440;2023-03-01T17:59:19;7.90;;;5.10;;
2976;SDS011;1498;51.500;7.440;2023-03-01T18:01:45;8.67;;;5.90;;
2976;SDS011;1498;51.500;7.440;2023-03-01T18:04:11;10.90;;;6.47;;
2976;SDS011;1498;51.500;7.440;2023-03-01T18:06:37;6.97;;;5.07;;
2976;SDS011;1498;51.500;7.440;2023-03-01T18:09:04;9.03;;;6.10;;
2976;SDS011;1498;51.500;7.440;2023-03-01T18:11:31;8.30;;;5.50;;
2976;SDS011;1498;51.500;7.440;2023-03-01T18:13:58;8.43;;;6.30;;
2976;SDS011;1498;51.500;7.440;2023-03-01T18:16:24;12.13;;;6.60;;
2976;SDS011;1498;51.500;7.440;2023-03-01T18:18:53;9.27;;;5.77;;
2976;SDS011;1498;51.500;7.440;2023-03-01T18:21:20;13.93;;;6.07;;
2976;SDS011;1498;51.500;7.440;2023-03-01T18:23:47;8.87;;;6.10;;
2976;SDS011;1498;51.500;7.440;2023-03-01T18:26:13;8.07;;;7.00;;
2976;SDS011;1498;51.500;7.440;2023-03-01T18:28:41;7.47;;;5.80;;
2976;SDS011;1498;51.500;7.440;2023-03-01T18:31:11;11.80;;;6.40;;
2976;SDS011;1498;51.500;7.440;2023-03-01T18:33:38;10.03;;;5.80;;
2976;SDS011;1498;51.500;7.440;2023-03-01T18:36:04;12.00;;;6.63;;
2976;SDS011;1498;51.500;7.440;2023-03-01T18:38:30;9.33;;;6.40;;
2976;SDS011;1498;51.500;7.440;2023-03-01T18:40:56;9.50;;;6.63;;
2976;SDS011;1498;51.500;7.440;2023-03-01T18:43:22;8.30;;;7.20;;
2976;SDS011;1498;51.500;7.440;2023-03-01T18:45:54;7.57;;;6.20;;
2976;SDS011;1498;51.500;7.440;2023-03-01T18:48:20;11.17;;;6.73;;
2976;SDS011;1498;51.500;7.440;2023-03-01T18:50:46;9.50;;;6.63;;
2976;SDS011;1498;51.500;7.440;2023-03-01T18:53:11;7.93;;;5.70;;
2976;SDS011;1498;51.500;7.440;2023-03-01T18:55:37;9.13;;;6.67;;
2976;SDS011;1498;51.500;7.440;2023-03-01T18:58:03;11.70;;;7.80;;
2976;SDS011;1498;51.500;7.440;2023-03-01T19:00:30;14.60;;;7.00;;
2976;SDS011;1498;51.500;7.440;2023-03-01T19:02:57;12.80;;;7.13;;
2976;SDS011;1498;51.500;7.440;2023-03-01T19:05:23;11.00;;;7.00;;